Time;durP1;ratioP1;P1;durP2;ratioP2;P2;SDS_P1;SDS_P2;PMS_P1;PMS_P2;Temp;Humidity;BMP_temperature;BMP_pressure;BME280_temperature;BME280_humidity;BME280_pressure;Samples;Min_cycle;Max_cycle;Signal;HPM_P1;HPM_P2
2023/09/09 00:00:56;;;;;;;9.40;8.60;;;19.80;99.90;;;;;;4986584;28;20485;-74
2023/09/09 00:03:22;;;;;;;11.93;10.27;;;19.80;99.90;;;;;;4988219;28;20180;-70
2023/09/09 00:05:48;;;;;;;11.25;10.30;;;19.80;99.90;;;;;;4986762;28;20199;-70
2023/09/09 00:08:15;;;;;;;11.55;10.30;;;19.70;99.90;;;;;;4984524;28;20204;-71
2023/09/09 00:10:41;;;;;;;10.63;9.73;;;19.60;99.90;;;;;;4985287;28;20189;-70
2023/09/09 00:13:09;;;;;;;10.60;9.60;;;19.60;99.90;;;;;;4986883;28;20195;-74
2023/09/09 00:15:34;;;;;;;10.98;10.07;;;19.40;99.90;;;;;;4986077;28;20218;-70
2023/09/09 00:18:02;;;;;;;11.53;10.53;;;19.60;99.90;;;;;;4986511;28;20219;-70
2023/09/09 00:20:33;;;;;;;11.20;9.90;;;19.50;99.90;;;;;;4985103;28;20471;-71
2023/09/09 00:23:00;;;;;;;12.73;11.40;;;19.50;99.90;;;;;;4986103;28;20307;-70
2023/09/09 00:25:25;;;;;;;9.43;8.63;;;19.40;99.90;;;;;;4988289;28;20184;-73
2023/09/09 00:27:51;;;;;;;10.27;9.47;;;19.50;99.90;;;;;;4991531;28;20199;-70
2023/09/09 00:30:17;;;;;;;11.80;10.80;;;19.50;99.90;;;;;;4984416;28;20554;-70
2023/09/09 00:32:42;;;;;;;11.60;10.50;;;19.40;99.90;;;;;;4985290;28;20492;-70
2023/09/09 00:35:08;;;;;;;11.03;9.97;;;19.40;99.90;;;;;;4988146;28;20211;-72
2023/09/09 00:37:34;;;;;;;10.87;9.87;;;19.40;99.90;;;;;;4986875;28;20204;-73
2023/09/09 00:40:00;;;;;;;10.63;9.63;;;19.40;99.90;;;;;;4982925;28;20254;-70
2023/09/09 00:42:25;;;;;;;11.00;10.10;;;19.40;99.90;;;;;;4977834;28;20193;-70
2023/09/09 00:44:51;;;;;;;10.37;9.47;;;19.40;99.90;;;;;;4984975;28;20270;-72
2023/09/09 00:47:17;;;;;;;10.37;9.40;;;19.30;99.90;;;;;;4986822;28;20188;-70
2023/09/09 00:49:43;;;;;;;11.23;10.27;;;19.50;99.90;;;;;;4986760;28;20665;-70
2023/09/09 00:52:09;;;;;;;10.90;9.80;;;19.40;99.90;;;;;;4980366;28;20198;-70
2023/09/09 00:54:35;;;;;;;11.03;9.93;;;19.40;99.90;;;;;;4982874;28;20195;-69
2023/09/09 00:57:04;;;;;;;11.90;10.57;;;19.40;99.90;;;;;;4988860;28;20215;-69
2023/09/09 00:59:29;;;;;;;10.85;9.95;;;19.40;99.90;;;;;;4987086;28;20216;-72
2023/09/09 01:01:57;;;;;;;11.07;10.07;;;19.40;99.90;;;;;;4986480;28;20180;-69
2023/09/09 01:04:23;;;;;;;11.57;9.90;;;19.30;99.90;;;;;;4986575;28;20183;-70
2023/09/09 01:06:49;;;;;;;10.70;9.80;;;19.30;99.90;;;;;;4982346;28;20186;-72
2023/09/09 01:09:15;;;;;;;10.85;9.95;;;19.20;99.90;;;;;;4986780;28;20517;-69
2023/09/09 01:11:41;;;;;;;11.65;10.55;;;19.10;99.90;;;;;;4986648;28;20187;-72
2023/09/09 01:14:07;;;;;;;11.20;10.20;;;19.00;99.90;;;;;;4988476;28;20191;-68
2023/09/09 01:16:33;;;;;;;11.07;10.07;;;18.90;99.90;;;;;;4986938;28;20214;-69
2023/09/09 01:18:59;;;;;;;11.33;10.13;;;19.00;99.90;;;;;;4986657;28;20217;-69
2023/09/09 01:21:29;;;;;;;11.45;10.35;;;18.90;99.90;;;;;;4986247;28;20485;-69
2023/09/09 01:23:54;;;;;;;11.95;10.75;;;18.90;99.90;;;;;;4986311;28;20186;-69
2023/09/09 01:26:20;;;;;;;11.30;10.30;;;18.90;99.90;;;;;;4988283;28;20184;-69
2023/09/09 01:28:46;;;;;;;10.80;9.90;;;18.90;99.90;;;;;;4987009;28;20624;-69
2023/09/09 01:31:12;;;;;;;11.43;10.40;;;19.00;99.90;;;;;;4981541;28;20274;-68
2023/09/09 01:33:38;;;;;;;11.13;10.20;;;18.90;99.90;;;;;;4986499;28;20307;-70
2023/09/09 01:36:04;;;;;;;11.33;10.33;;;18.90;99.90;;;;;;4987938;28;20616;-69
2023/09/09 01:38:34;;;;;;;10.87;9.97;;;18.90;99.90;;;;;;4986204;28;20210;-71
2023/09/09 01:41:05;;;;;;;10.65;9.75;;;18.90;99.90;;;;;;4987764;28;20962;-70
2023/09/09 01:43:31;;;;;;;11.38;10.38;;;18.90;99.90;;;;;;4984378;28;20203;-69
2023/09/09 01:45:56;;;;;;;10.70;9.70;;;18.80;99.90;;;;;;4987421;28;20192;-68
2023/09/09 01:48:22;;;;;;;11.20;10.27;;;19.20;99.90;;;;;;4986416;28;20234;-69
2023/09/09 01:50:48;;;;;;;11.17;10.27;;;18.80;99.90;;;;;;4983035;28;20203;-70
2023/09/09 01:53:14;;;;;;;11.40;10.50;;;18.70;99.90;;;;;;4983464;28;20860;-68
2023/09/09 01:55:39;;;;;;;10.80;9.90;;;18.80;99.90;;;;;;4985075;28;20282;-69
2023/09/09 01:58:05;;;;;;;10.37;9.47;;;18.80;99.90;;;;;;4986565;28;20223;-69
2023/09/09 02:00:30;;;;;;;10.00;9.10;;;18.80;99.90;;;;;;4986700;28;20290;-72
2023/09/09 02:02:56;;;;;;;10.67;9.67;;;18.80;99.90;;;;;;4982762;28;20199;-69
2023/09/09 02:05:22;;;;;;;12.27;11.17;;;18.80;99.90;;;;;;4987134;28;20206;-69
2023/09/09 02:07:48;;;;;;;10.80;9.90;;;18.80;99.90;;;;;;4983199;28;20217;-69
2023/09/09 02:10:13;;;;;;;10.83;9.73;;;18.80;99.90;;;;;;4986056;28;20278;-70
2023/09/09 02:12:39;;;;;;;10.93;10.03;;;18.80;99.90;;;;;;4985501;28;20199;-70
2023/09/09 02:15:05;;;;;;;10.37;9.47;;;18.80;99.90;;;;;;4987599;28;20282;-69
2023/09/09 02:17:30;;;;;;;11.35;9.82;;;18.80;99.90;;;;;;4986329;28;20207;-69
2023/09/09 02:19:56;;;;;;;10.73;9.73;;;18.70;99.90;;;;;;4986688;28;20187;-70
2023/09/09 02:22:23;;;;;;;11.13;10.02;;;18.70;99.90;;;;;;4986461;28;20241;-69
2023/09/09 02:24:55;;;;;;;10.23;9.20;;;18.70;99.90;;;;;;4986106;28;20198;-70
2023/09/09 02:27:21;;;;;;;10.65;9.60;;;18.70;99.90;;;;;;4986389;28;20215;-68
2023/09/09 02:29:47;;;;;;;11.10;10.10;;;18.80;99.90;;;;;;4986338;28;20192;-69
2023/09/09 02:32:12;;;;;;;9.90;9.10;;;18.80;99.90;;;;;;4985939;28;20184;-72
2023/09/09 02:34:38;;;;;;;11.53;10.53;;;18.70;99.90;;;;;;4986635;28;20189;-72
2023/09/09 02:37:11;;;;;;;10.80;9.80;;;18.60;99.90;;;;;;4987370;28;20198;-69
2023/09/09 02:39:36;;;;;;;10.60;9.70;;;18.50;99.90;;;;;;4985736;28;20231;-69
2023/09/09 02:42:02;;;;;;;10.80;9.80;;;18.60;99.90;;;;;;4987300;28;20219;-69
2023/09/09 02:44:28;;;;;;;11.07;9.97;;;18.50;99.90;;;;;;4991462;28;20193;-69
2023/09/09 02:46:53;;;;;;;10.60;9.70;;;18.50;99.90;;;;;;4989437;28;20226;-69
2023/09/09 02:49:19;;;;;;;10.97;9.97;;;18.50;99.90;;;;;;4991140;28;20261;-69
2023/09/09 02:51:44;;;;;;;10.90;10.00;;;18.50;99.90;;;;;;4990621;28;20184;-72
2023/09/09 02:54:10;;;;;;;10.10;9.10;;;18.40;99.90;;;;;;4988019;28;20253;-72
2023/09/09 02:56:35;;;;;;;10.87;9.97;;;18.40;99.90;;;;;;4988145;28;20209;-71
2023/09/09 02:59:01;;;;;;;9.60;8.80;;;18.40;99.90;;;;;;4988681;28;20216;-69
2023/09/09 03:01:27;;;;;;;10.27;9.17;;;18.40;99.90;;;;;;4985578;28;20695;-72
2023/09/09 03:03:52;;;;;;;11.97;10.87;;;18.40;99.90;;;;;;4989586;28;20184;-69
2023/09/09 03:06:18;;;;;;;12.13;10.57;;;18.70;99.90;;;;;;4988696;28;20558;-69
2023/09/09 03:08:44;;;;;;;11.70;10.70;;;18.40;99.90;;;;;;4987793;28;20341;-71
2023/09/09 03:11:10;;;;;;;11.98;10.95;;;18.30;99.90;;;;;;4988172;28;20601;-68
2023/09/09 03:13:35;;;;;;;11.70;10.50;;;18.40;99.90;;;;;;4989291;28;20196;-70
2023/09/09 03:16:01;;;;;;;11.60;10.50;;;18.40;99.90;;;;;;4988150;28;20551;-69
2023/09/09 03:18:26;;;;;;;10.90;10.00;;;18.40;99.90;;;;;;4988768;28;20239;-69
2023/09/09 03:20:52;;;;;;;11.30;10.07;;;18.40;99.90;;;;;;4988511;28;20180;-69
2023/09/09 03:23:18;;;;;;;11.37;10.37;;;18.30;99.90;;;;;;4987788;28;20185;-70
2023/09/09 03:25:43;;;;;;;10.53;9.53;;;18.30;99.90;;;;;;4989160;28;20179;-69
2023/09/09 03:28:09;;;;;;;11.03;10.13;;;18.40;99.90;;;;;;4988634;28;20216;-70
2023/09/09 03:30:55;;;;;;;10.43;9.53;;;18.30;99.90;;;;;;4988621;28;20234;-68
2023/09/09 03:33:20;;;;;;;11.40;10.43;;;18.30;99.90;;;;;;4987207;28;20191;-70
2023/09/09 03:35:46;;;;;;;12.27;11.17;;;18.30;99.90;;;;;;4989157;28;20228;-68
2023/09/09 03:38:12;;;;;;;10.93;10.03;;;18.50;99.90;;;;;;4985961;28;20277;-67
2023/09/09 03:40:37;;;;;;;11.33;10.23;;;18.20;99.90;;;;;;4987859;28;20561;-71
2023/09/09 03:43:03;;;;;;;11.20;10.30;;;18.50;99.90;;;;;;4987981;28;20657;-67
2023/09/09 03:45:28;;;;;;;10.83;9.90;;;18.50;99.90;;;;;;4987398;28;20192;-68
2023/09/09 03:47:56;;;;;;;12.00;10.90;;;18.20;99.90;;;;;;4988624;28;20218;-71
2023/09/09 03:50:21;;;;;;;11.88;10.13;;;18.00;99.90;;;;;;4989450;28;20194;-68
2023/09/09 03:52:47;;;;;;;10.93;9.90;;;18.10;99.90;;;;;;4986362;28;20192;-71
2023/09/09 03:55:13;;;;;;;11.10;10.00;;;18.00;99.90;;;;;;4988908;28;20270;-69
2023/09/09 03:57:38;;;;;;;11.37;10.37;;;18.10;99.90;;;;;;4989351;28;20215;-69
2023/09/09 04:00:05;;;;;;;11.33;10.43;;;18.10;99.90;;;;;;4988296;28;20656;-70
2023/09/09 04:02:31;;;;;;;12.13;11.10;;;18.10;99.90;;;;;;4987244;28;20179;-71
2023/09/09 04:04:56;;;;;;;11.30;10.27;;;18.10;99.90;;;;;;4985397;28;20702;-68
2023/09/09 04:07:22;;;;;;;10.77;9.67;;;17.80;99.90;;;;;;4988321;28;20195;-69
2023/09/09 04:09:48;;;;;;;11.47;10.47;;;18.10;99.90;;;;;;4981627;28;20743;-70
2023/09/09 04:12:13;;;;;;;11.33;10.33;;;18.10;99.90;;;;;;4986563;28;20606;-69
2023/09/09 04:14:39;;;;;;;11.07;10.17;;;18.00;99.90;;;;;;4987101;28;20236;-69
2023/09/09 04:17:06;;;;;;;11.73;10.63;;;17.90;99.90;;;;;;4985959;28;20180;-69
2023/09/09 04:19:31;;;;;;;12.07;10.95;;;17.90;99.90;;;;;;4986959;28;20493;-68
2023/09/09 04:21:57;;;;;;;11.27;10.37;;;18.30;99.90;;;;;;4986461;28;20916;-68
2023/09/09 04:24:23;;;;;;;11.80;10.70;;;17.60;99.90;;;;;;4985248;28;20648;-70
2023/09/09 04:26:48;;;;;;;11.73;10.73;;;17.90;99.90;;;;;;4989036;28;20191;-69
2023/09/09 04:29:14;;;;;;;11.17;10.27;;;17.90;99.90;;;;;;4988288;28;20203;-69
2023/09/09 04:31:40;;;;;;;13.60;10.27;;;18.00;99.90;;;;;;4990309;28;20591;-69
2023/09/09 04:34:05;;;;;;;11.43;10.43;;;18.10;99.90;;;;;;4988084;28;20210;-71
2023/09/09 04:36:31;;;;;;;12.50;10.83;;;18.00;99.90;;;;;;4988852;28;20215;-69
2023/09/09 04:38:56;;;;;;;12.10;11.00;;;18.10;99.90;;;;;;4985770;28;20223;-68
2023/09/09 04:41:22;;;;;;;12.37;11.27;;;18.00;99.90;;;;;;4988592;28;20229;-70
2023/09/09 04:43:47;;;;;;;12.07;10.73;;;18.00;99.90;;;;;;4989064;28;20195;-69
2023/09/09 04:46:13;;;;;;;11.47;10.50;;;18.00;99.90;;;;;;4987790;28;20196;-69
2023/09/09 04:48:38;;;;;;;11.60;10.50;;;17.90;99.90;;;;;;4986649;28;20293;-69
2023/09/09 04:51:04;;;;;;;11.67;10.67;;;17.90;99.90;;;;;;4988744;28;20719;-69
2023/09/09 04:53:30;;;;;;;11.60;10.40;;;18.00;99.90;;;;;;4984021;28;20219;-69
2023/09/09 04:55:56;;;;;;;11.20;10.20;;;18.00;99.90;;;;;;4986196;28;20266;-69
2023/09/09 04:58:22;;;;;;;10.90;10.00;;;18.10;99.90;;;;;;4982461;28;20250;-69
2023/09/09 05:00:47;;;;;;;10.40;9.30;;;18.00;99.90;;;;;;4984824;28;20188;-68
2023/09/09 05:03:14;;;;;;;10.52;9.63;;;18.00;99.90;;;;;;4984897;28;20266;-69
2023/09/09 05:05:39;;;;;;;12.13;10.97;;;17.90;99.90;;;;;;4986477;28;20187;-71
2023/09/09 05:08:05;;;;;;;11.83;10.70;;;17.80;99.90;;;;;;4982202;28;20218;-69
2023/09/09 05:10:33;;;;;;;11.40;10.40;;;17.90;99.90;;;;;;4985837;28;20225;-70
2023/09/09 05:12:58;;;;;;;12.43;11.43;;;17.80;99.90;;;;;;4985688;28;20303;-69
2023/09/09 05:15:24;;;;;;;11.83;10.83;;;18.10;99.90;;;;;;4984435;28;20274;-69
2023/09/09 05:17:49;;;;;;;13.37;11.20;;;17.40;99.90;;;;;;4984463;28;20779;-69
2023/09/09 05:20:15;;;;;;;11.93;10.93;;;17.50;99.90;;;;;;4987142;28;20265;-70
2023/09/09 05:22:40;;;;;;;13.03;11.80;;;17.80;99.90;;;;;;4986103;28;20672;-72
2023/09/09 05:25:06;;;;;;;12.07;10.87;;;17.90;99.90;;;;;;4988227;28;20594;-69
2023/09/09 05:27:32;;;;;;;12.40;11.30;;;17.70;99.90;;;;;;4988212;28;20695;-70
2023/09/09 05:29:57;;;;;;;13.80;12.50;;;18.00;99.90;;;;;;4986982;28;20442;-71
2023/09/09 05:32:24;;;;;;;12.27;11.27;;;18.10;99.90;;;;;;4982193;28;20273;-75
2023/09/09 05:34:49;;;;;;;13.05;11.85;;;18.30;99.90;;;;;;4984521;28;20626;-71
2023/09/09 05:37:15;;;;;;;13.23;11.27;;;18.20;99.90;;;;;;4986063;28;20211;-71
2023/09/09 05:39:41;;;;;;;13.35;12.25;;;18.30;99.90;;;;;;4979577;28;20203;-71
2023/09/09 05:42:06;;;;;;;12.93;11.73;;;18.40;99.90;;;;;;4985666;28;20249;-70
2023/09/09 05:44:35;;;;;;;14.20;13.00;;;18.40;99.90;;;;;;4987509;28;20188;-73
2023/09/09 05:47:00;;;;;;;13.27;12.07;;;18.50;99.90;;;;;;4982051;28;20172;-74
2023/09/09 05:49:26;;;;;;;12.00;10.87;;;18.50;99.90;;;;;;4985675;28;20863;-70
2023/09/09 05:51:51;;;;;;;12.70;11.60;;;18.30;99.90;;;;;;4986579;28;20530;-70
2023/09/09 05:54:17;;;;;;;11.80;10.80;;;18.60;99.90;;;;;;4984802;28;20611;-73
2023/09/09 05:56:42;;;;;;;13.93;12.60;;;18.70;99.90;;;;;;4985060;28;20184;-72
2023/09/09 05:59:08;;;;;;;12.70;11.53;;;18.80;99.90;;;;;;4983454;28;20935;-70
2023/09/09 06:01:34;;;;;;;12.80;11.80;;;19.30;99.90;;;;;;4984726;28;20267;-69
2023/09/09 06:03:59;;;;;;;12.03;11.00;;;18.90;99.90;;;;;;4986440;28;20183;-69
2023/09/09 06:06:25;;;;;;;13.30;12.10;;;19.00;99.90;;;;;;4985702;28;20211;-70
2023/09/09 06:08:51;;;;;;;12.63;11.60;;;19.10;99.90;;;;;;4986648;28;20736;-69
2023/09/09 06:11:16;;;;;;;13.13;12.03;;;19.50;99.90;;;;;;4985998;28;20187;-69
2023/09/09 06:13:42;;;;;;;12.07;11.03;;;19.30;99.90;;;;;;4985554;28;20214;-69
2023/09/09 06:16:08;;;;;;;12.47;11.37;;;19.40;99.90;;;;;;4979799;28;20219;-69
2023/09/09 06:18:33;;;;;;;12.40;11.20;;;19.50;99.90;;;;;;4990815;28;20211;-69
2023/09/09 06:20:59;;;;;;;12.53;11.53;;;19.60;99.90;;;;;;4988746;28;20533;-69
2023/09/09 06:23:24;;;;;;;12.20;11.13;;;19.70;99.90;;;;;;4988612;28;20302;-69
2023/09/09 06:25:50;;;;;;;11.80;10.70;;;19.80;99.90;;;;;;4990120;28;20183;-69
2023/09/09 06:28:16;;;;;;;11.85;10.80;;;19.90;99.90;;;;;;4989366;28;20215;-70
2023/09/09 06:30:43;;;;;;;13.00;11.70;;;19.90;99.90;;;;;;4986531;28;20199;-69
2023/09/09 06:33:09;;;;;;;12.27;11.02;;;20.10;99.90;;;;;;4985898;28;20994;-69
2023/09/09 06:35:34;;;;;;;11.87;10.83;;;20.10;99.90;;;;;;4989828;28;20195;-70
2023/09/09 06:38:00;;;;;;;12.17;11.07;;;20.20;99.90;;;;;;4983077;28;20231;-69
2023/09/09 06:40:27;;;;;;;11.45;10.45;;;20.30;99.90;;;;;;4990622;28;20198;-69
2023/09/09 06:42:53;;;;;;;12.50;11.25;;;20.40;99.90;;;;;;4989519;28;20183;-70
2023/09/09 06:45:19;;;;;;;13.20;11.55;;;20.60;99.90;;;;;;4987043;28;20180;-68
2023/09/09 06:47:48;;;;;;;12.57;11.40;;;21.10;99.90;;;;;;4989287;28;20246;-68
2023/09/09 06:50:13;;;;;;;11.33;10.33;;;21.80;99.90;;;;;;4987380;28;20230;-68
2023/09/09 06:52:39;;;;;;;11.63;10.53;;;22.00;99.90;;;;;;4988316;28;20446;-68
2023/09/09 06:55:08;;;;;;;12.70;11.40;;;22.10;99.90;;;;;;4990465;28;20588;-68
2023/09/09 06:57:34;;;;;;;11.67;10.60;;;22.10;99.90;;;;;;4989947;28;20749;-69
2023/09/09 07:00:00;;;;;;;11.70;10.70;;;22.30;99.90;;;;;;4989161;28;20458;-69
2023/09/09 07:02:25;;;;;;;12.57;11.33;;;22.50;99.90;;;;;;4987464;28;20486;-69
2023/09/09 07:04:53;;;;;;;11.77;10.67;;;23.70;99.90;;;;;;4988158;28;20200;-70
2023/09/09 07:07:18;;;;;;;10.30;9.50;;;25.60;99.90;;;;;;4987766;28;20188;-69
2023/09/09 07:09:44;;;;;;;10.30;9.50;;;28.10;98.60;;;;;;4985782;28;20453;-70
2023/09/09 07:12:10;;;;;;;9.20;8.50;;;30.10;92.90;;;;;;4988403;28;20267;-70
2023/09/09 07:14:36;;;;;;;10.43;9.63;;;32.20;88.40;;;;;;4985503;28;20186;-70
2023/09/09 07:17:03;;;;;;;11.80;10.80;;;33.90;80.90;;;;;;5000358;28;20446;-70
2023/09/09 07:19:29;;;;;;;10.10;9.40;;;35.70;73.30;;;;;;4985162;28;20234;-70
2023/09/09 07:21:54;;;;;;;10.27;9.47;;;36.20;68.00;;;;;;4988303;28;20454;-71
2023/09/09 07:24:20;;;;;;;13.70;12.50;;;37.20;64.50;;;;;;4986141;28;20187;-71
2023/09/09 07:26:45;;;;;;;11.97;10.97;;;38.60;59.40;;;;;;4990539;28;20222;-71
2023/09/09 07:29:11;;;;;;;9.90;9.20;;;39.60;55.70;;;;;;4988517;28;20199;-72
2023/09/09 07:31:37;;;;;;;11.10;10.10;;;40.50;53.40;;;;;;4986725;28;20869;-71
2023/09/09 07:34:02;;;;;;;10.90;10.20;;;40.60;51.50;;;;;;4982974;28;20255;-71
2023/09/09 07:36:28;;;;;;;10.83;10.07;;;41.00;49.40;;;;;;4989451;28;20994;-75
2023/09/09 07:38:54;;;;;;;10.40;9.60;;;40.00;49.50;;;;;;4982786;28;20215;-76
2023/09/09 07:41:20;;;;;;;11.07;10.30;;;40.80;50.00;;;;;;4988190;28;20722;-76
2023/09/09 07:43:47;;;;;;;10.40;9.60;;;41.20;47.80;;;;;;4988113;28;20492;-78
2023/09/09 07:46:13;;;;;;;10.30;9.43;;;41.10;47.20;;;;;;4988647;28;20186;-78
2023/09/09 07:48:39;;;;;;;10.73;9.83;;;41.30;47.00;;;;;;4988025;28;20470;-70
2023/09/09 07:51:04;;;;;;;10.90;10.00;;;41.60;45.90;;;;;;4986761;28;20187;-75
2023/09/09 07:53:30;;;;;;;11.27;10.33;;;42.00;45.50;;;;;;4986946;28;20238;-80
2023/09/09 07:55:55;;;;;;;10.20;9.47;;;42.10;44.50;;;;;;5005762;28;20184;-80
2023/09/09 07:58:21;;;;;;;10.80;10.00;;;42.70;44.30;;;;;;4991097;28;20702;-80
2023/09/09 08:00:47;;;;;;;10.33;9.43;;;43.60;43.00;;;;;;4989494;28;20318;-78
2023/09/09 08:03:13;;;;;;;10.30;9.53;;;44.00;41.70;;;;;;4989935;28;20234;-80
2023/09/09 08:05:40;;;;;;;9.90;9.07;;;44.60;40.50;;;;;;4991708;28;20187;-78
2023/09/09 08:08:07;;;;;;;10.97;10.27;;;44.70;39.90;;;;;;4987952;28;20461;-78
2023/09/09 08:10:35;;;;;;;9.43;8.77;;;44.90;39.10;;;;;;4988586;28;20466;-81
2023/09/09 08:13:01;;;;;;;9.83;9.13;;;45.10;38.80;;;;;;4993714;28;20451;-80
2023/09/09 08:15:27;;;;;;;10.40;9.70;;;45.40;38.20;;;;;;4994914;28;20446;-81
2023/09/09 08:17:53;;;;;;;11.27;10.50;;;45.50;37.90;;;;;;4992352;28;20496;-81
2023/09/09 08:20:19;;;;;;;10.13;9.33;;;45.40;37.50;;;;;;4992575;28;20235;-81
2023/09/09 08:22:47;;;;;;;10.33;9.53;;;45.10;37.40;;;;;;4985919;28;20182;-85
2023/09/09 08:25:12;;;;;;;9.73;8.83;;;45.10;37.80;;;;;;4993816;28;20190;-84
2023/09/09 08:27:39;;;;;;;11.53;10.43;;;44.20;38.30;;;;;;5003126;28;20591;-83
2023/09/09 08:30:06;;;;;;;10.77;10.10;;;43.00;39.30;;;;;;5005775;28;20280;-82
2023/09/09 08:32:31;;;;;;;10.83;9.93;;;41.00;42.10;;;;;;4994878;28;20439;-81
2023/09/09 08:34:58;;;;;;;10.97;10.17;;;39.10;44.20;;;;;;4992526;28;20482;-82
2023/09/09 08:37:24;;;;;;;10.20;9.37;;;37.70;47.30;;;;;;4991919;28;20191;-83
2023/09/09 08:39:52;;;;;;;11.30;10.50;;;36.30;50.00;;;;;;4991973;28;20511;-83
2023/09/09 08:43:00;;;;;;;10.40;9.70;;;34.30;52.20;;;;;;4992002;28;20214;-80
2023/09/09 08:45:37;;;;;;;13.93;12.80;;;33.50;56.80;;;;;;4993035;28;20450;-83
2023/09/09 08:48:09;;;;;;;11.30;10.43;;;32.60;58.90;;;;;;4989602;28;20473;-83
2023/09/09 08:50:38;;;;;;;11.77;10.70;;;32.00;61.30;;;;;;4992660;28;20451;-83
2023/09/09 08:53:08;;;;;;;11.90;10.70;;;31.40;64.40;;;;;;4987917;28;20471;-82
2023/09/09 08:55:36;;;;;;;10.63;9.73;;;31.00;66.40;;;;;;4992426;28;20451;-81
2023/09/09 08:58:02;;;;;;;12.20;11.10;;;30.60;68.90;;;;;;4987874;28;20490;-82
2023/09/09 09:00:33;;;;;;;11.57;10.70;;;30.30;71.10;;;;;;4986211;28;20473;-81
2023/09/09 09:03:03;;;;;;;13.27;12.07;;;29.90;72.90;;;;;;4989709;28;20457;-81
2023/09/09 09:05:33;;;;;;;11.43;10.53;;;29.60;74.80;;;;;;4993246;28;20447;-82
2023/09/09 09:08:00;;;;;;;11.43;10.53;;;29.20;76.70;;;;;;4989386;28;20849;-80
2023/09/09 09:10:26;;;;;;;11.07;10.03;;;28.30;77.00;;;;;;4986643;28;20972;-81
2023/09/09 09:12:53;;;;;;;12.63;11.63;;;29.00;79.70;;;;;;4984546;28;20966;-82
2023/09/09 09:15:20;;;;;;;12.00;11.00;;;28.70;80.00;;;;;;4992120;28;20449;-80
2023/09/09 09:17:46;;;;;;;14.53;13.23;;;28.50;82.40;;;;;;4988464;28;20479;-80
2023/09/09 09:20:28;;;;;;;12.53;11.60;;;28.60;83.30;;;;;;4992661;28;20966;-80
2023/09/09 09:22:59;;;;;;;13.73;12.53;;;28.40;83.10;;;;;;4990362;28;20203;-81
2023/09/09 09:25:26;;;;;;;12.97;11.87;;;28.50;84.70;;;;;;4987645;28;20453;-79
2023/09/09 09:27:54;;;;;;;10.80;9.90;;;28.20;85.30;;;;;;4987762;28;20470;-81
2023/09/09 09:30:23;;;;;;;11.20;10.17;;;28.50;85.40;;;;;;4988099;28;20449;-79
2023/09/09 09:32:52;;;;;;;11.10;10.27;;;28.60;85.60;;;;;;4985493;28;20444;-81
2023/09/09 09:35:25;;;;;;;12.27;11.33;;;28.60;85.70;;;;;;4988056;28;20457;-79
2023/09/09 09:38:09;;;;;;;14.10;11.67;;;28.70;85.30;;;;;;4985073;28;20468;-79
2023/09/09 09:40:35;;;;;;;11.23;10.13;;;28.50;85.10;;;;;;4986002;28;20457;-82
2023/09/09 09:43:01;;;;;;;10.60;9.60;;;28.70;85.00;;;;;;4988359;28;20462;-81
2023/09/09 09:45:29;;;;;;;10.90;10.00;;;28.90;84.00;;;;;;4989636;28;20523;-81
2023/09/09 09:47:57;;;;;;;11.40;10.37;;;29.10;82.30;;;;;;4989477;28;20497;-80
2023/09/09 09:50:34;;;;;;;10.57;9.67;;;29.30;83.40;;;;;;4987426;28;20453;-81
2023/09/09 09:53:07;;;;;;;10.70;9.90;;;29.30;82.20;;;;;;4990831;28;20852;-80
2023/09/09 09:55:35;;;;;;;10.90;10.03;;;29.50;82.30;;;;;;4990248;28;20887;-83
2023/09/09 09:58:05;;;;;;;10.90;10.10;;;29.50;82.40;;;;;;4990135;28;20477;-82
2023/09/09 10:00:32;;;;;;;11.97;10.80;;;29.50;81.90;;;;;;5004923;28;20920;-82
2023/09/09 10:03:00;;;;;;;10.33;9.53;;;29.50;81.80;;;;;;4986924;28;21792;-79
2023/09/09 10:05:27;;;;;;;10.13;9.33;;;29.50;80.00;;;;;;4989511;28;20986;-78
2023/09/09 10:08:05;;;;;;;10.33;9.43;;;29.30;79.20;;;;;;4987094;28;20540;-81
2023/09/09 10:10:33;;;;;;;9.57;8.83;;;29.30;80.30;;;;;;4989667;28;20464;-79
2023/09/09 10:13:04;;;;;;;10.87;9.97;;;29.30;80.10;;;;;;4990428;28;21256;-80
2023/09/09 10:15:32;;;;;;;10.37;9.47;;;29.30;79.80;;;;;;4984693;28;20533;-80
2023/09/09 10:17:59;;;;;;;11.00;9.90;;;29.40;80.80;;;;;;4984682;28;20483;-79
2023/09/09 10:20:26;;;;;;;10.70;9.70;;;29.40;80.90;;;;;;4985350;28;20505;-79
2023/09/09 10:22:59;;;;;;;10.40;9.60;;;29.40;80.20;;;;;;4988223;28;20919;-79
2023/09/09 10:25:26;;;;;;;10.43;9.33;;;29.30;81.20;;;;;;4985236;28;20826;-81
2023/09/09 10:27:52;;;;;;;9.70;8.97;;;29.50;80.80;;;;;;5004923;28;20499;-79
2023/09/09 10:30:19;;;;;;;11.30;10.40;;;29.40;80.40;;;;;;4988685;28;20465;-81
2023/09/09 10:32:46;;;;;;;11.17;10.27;;;29.40;80.30;;;;;;4991786;28;20533;-81
2023/09/09 10:35:14;;;;;;;10.50;9.43;;;29.60;80.00;;;;;;4987688;28;20436;-80
2023/09/09 10:37:41;;;;;;;10.90;9.80;;;29.90;79.30;;;;;;4987341;28;20486;-80
2023/09/09 10:40:08;;;;;;;10.60;9.70;;;30.00;79.20;;;;;;4994987;28;20478;-81
2023/09/09 10:42:41;;;;;;;10.20;9.40;;;30.00;78.80;;;;;;4985898;28;20536;-80
2023/09/09 10:45:22;;;;;;;10.30;9.40;;;30.00;78.80;;;;;;4988366;28;20478;-80
2023/09/09 10:47:54;;;;;;;9.80;9.00;;;30.00;77.80;;;;;;4988064;28;20489;-79
2023/09/09 10:50:20;;;;;;;10.03;9.10;;;30.10;77.90;;;;;;4989176;28;20488;-82
2023/09/09 10:52:45;;;;;;;10.30;9.50;;;30.10;77.40;;;;;;4984601;28;20877;-81
2023/09/09 10:55:15;;;;;;;10.23;9.30;;;30.10;77.10;;;;;;4987473;28;20439;-81
2023/09/09 10:57:40;;;;;;;9.87;9.07;;;30.20;77.70;;;;;;4992054;28;20210;-81
2023/09/09 11:00:09;;;;;;;11.50;10.50;;;30.10;77.40;;;;;;4989090;28;20535;-82
2023/09/09 11:02:48;;;;;;;10.00;9.10;;;30.10;77.80;;;;;;4985555;28;20215;-79
2023/09/09 11:05:15;;;;;;;9.90;8.90;;;30.00;77.90;;;;;;4994133;28;20447;-79
2023/09/09 11:07:44;;;;;;;9.00;8.30;;;30.00;77.20;;;;;;4991613;28;20474;-79
2023/09/09 11:10:15;;;;;;;9.90;9.10;;;30.10;76.90;;;;;;4995166;28;20449;-79
2023/09/09 11:12:58;;;;;;;10.90;10.00;;;29.70;77.50;;;;;;4988363;28;20494;-80
2023/09/09 11:15:25;;;;;;;10.13;9.33;;;30.00;77.50;;;;;;4995457;28;20497;-80
2023/09/09 11:17:51;;;;;;;10.67;9.77;;;30.10;78.10;;;;;;4993900;28;20568;-80
2023/09/09 11:20:20;;;;;;;8.47;7.80;;;30.00;77.70;;;;;;4997602;28;20466;-80
2023/09/09 11:22:46;;;;;;;9.80;9.00;;;30.00;76.70;;;;;;4993683;28;20939;-79
2023/09/09 11:25:15;;;;;;;8.50;7.70;;;30.10;76.90;;;;;;4992254;28;20442;-80
2023/09/09 11:27:41;;;;;;;8.93;8.23;;;30.10;76.80;;;;;;4992952;28;20669;-80
2023/09/09 11:30:07;;;;;;;10.47;8.37;;;30.20;76.40;;;;;;4991856;28;20443;-81
2023/09/09 11:32:32;;;;;;;8.03;7.40;;;30.40;75.10;;;;;;4990139;28;20578;-81
2023/09/09 11:34:58;;;;;;;9.17;8.37;;;30.40;73.20;;;;;;4988904;28;20450;-81
2023/09/09 11:37:25;;;;;;;9.60;7.70;;;30.60;74.20;;;;;;4989947;28;20195;-81
2023/09/09 11:39:52;;;;;;;8.37;7.67;;;30.70;73.20;;;;;;4990220;28;20216;-80
2023/09/09 11:42:18;;;;;;;8.60;7.77;;;30.70;72.60;;;;;;4991663;28;20992;-80
2023/09/09 11:44:46;;;;;;;12.20;7.73;;;30.60;71.70;;;;;;4991471;28;20439;-79
2023/09/09 11:47:13;;;;;;;8.20;7.60;;;30.50;70.60;;;;;;4986946;28;20807;-80
2023/09/09 11:49:41;;;;;;;8.30;7.60;;;30.40;71.70;;;;;;4990008;28;20483;-80
2023/09/09 11:52:07;;;;;;;11.37;6.63;;;30.40;70.70;;;;;;4995200;28;20841;-79
2023/09/09 11:54:33;;;;;;;10.50;6.00;;;30.50;68.50;;;;;;4993127;28;20481;-79
2023/09/09 11:57:06;;;;;;;9.03;6.60;;;30.50;68.00;;;;;;4989343;28;20514;-81
2023/09/09 11:59:46;;;;;;;11.53;7.50;;;31.20;66.60;;;;;;4986367;28;20722;-80
2023/09/09 12:02:22;;;;;;;9.37;8.20;;;31.70;66.00;;;;;;4989539;28;20890;-81
2023/09/09 12:04:57;;;;;;;8.83;6.70;;;31.80;65.50;;;;;;4991712;28;20992;-81
2023/09/09 12:07:27;;;;;;;7.77;6.07;;;31.70;65.10;;;;;;5007019;28;20449;-81
2023/09/09 12:09:53;;;;;;;8.70;5.70;;;31.80;64.50;;;;;;4988791;28;20464;-80
2023/09/09 12:12:19;;;;;;;11.73;6.40;;;31.60;64.20;;;;;;4988013;28;20541;-81
2023/09/09 12:14:46;;;;;;;10.63;7.83;;;31.70;65.00;;;;;;4987753;28;20480;-82
2023/09/09 12:17:12;;;;;;;7.10;6.40;;;31.60;65.50;;;;;;4987584;28;20190;-80
2023/09/09 12:19:38;;;;;;;10.87;8.53;;;31.40;66.20;;;;;;4988599;28;20480;-80
2023/09/09 12:22:03;;;;;;;8.87;7.00;;;31.20;67.00;;;;;;4991022;28;20218;-80
2023/09/09 12:24:39;;;;;;;8.17;6.03;;;31.20;65.70;;;;;;4992470;28;20188;-80
2023/09/09 12:27:05;;;;;;;7.87;6.77;;;31.20;66.20;;;;;;4992689;28;20214;-80
2023/09/09 12:29:31;;;;;;;6.80;6.20;;;31.20;65.80;;;;;;4988931;28;20573;-79
2023/09/09 12:31:59;;;;;;;11.23;7.20;;;31.20;65.20;;;;;;4992963;28;20196;-79